Time;durP1;ratioP1;P1;durP2;ratioP2;P2;SDS_P1;SDS_P2;PMS_P1;PMS_P2;Temp;Humidity;BMP_temperature;BMP_pressure;BME280_temperature;BME280_humidity;BME280_pressure;Samples;Min_cycle;Max_cycle;Signal;HPM_P1;HPM_P2
2021/07/20 00:00:59;;;;;;;31.50;13.88;;;;;;;;;;1484695;40;20102;-62
2021/07/20 00:02:00;;;;;;;27.42;13.35;;;;;;;;;;1484530;40;20021;-62
2021/07/20 00:03:06;;;;;;;27.30;13.18;;;;;;;;;;1484705;40;20060;-62
2021/07/20 00:04:06;;;;;;;29.40;14.65;;;;;;;;;;1484519;40;20029;-61
2021/07/20 00:05:11;;;;;;;30.15;13.20;;;;;;;;;;1484768;40;20025;-62
2021/07/20 00:06:13;;;;;;;31.55;14.27;;;;;;;;;;1484540;40;20027;-62
2021/07/20 00:07:14;;;;;;;27.50;13.70;;;;;;;;;;1484729;40;20148;-62
2021/07/20 00:08:15;;;;;;;26.52;13.35;;;;;;;;;;1484652;40;20025;-62
2021/07/20 00:09:17;;;;;;;29.30;13.23;;;;;;;;;;1484534;40;20300;-61
2021/07/20 00:10:22;;;;;;;29.75;14.05;;;;;;;;;;1484531;40;20393;-62
2021/07/20 00:11:24;;;;;;;28.63;14.23;;;;;;;;;;1484530;40;20032;-61
2021/07/20 00:12:25;;;;;;;34.05;14.43;;;;;;;;;;1484652;40;20032;-62
2021/07/20 00:13:27;;;;;;;30.75;14.18;;;;;;;;;;1484636;40;20032;-62
2021/07/20 00:14:29;;;;;;;33.33;14.73;;;;;;;;;;1484632;40;20070;-62
2021/07/20 00:15:31;;;;;;;30.85;14.70;;;;;;;;;;1484612;40;20044;-62
2021/07/20 00:16:32;;;;;;;30.23;14.73;;;;;;;;;;1484753;40;20028;-62
2021/07/20 00:17:34;;;;;;;32.28;14.30;;;;;;;;;;1484724;40;20029;-62
2021/07/20 00:18:36;;;;;;;29.08;14.60;;;;;;;;;;1484626;40;20021;-62
2021/07/20 00:19:38;;;;;;;31.90;14.90;;;;;;;;;;1484639;40;20028;-62
2021/07/20 00:20:40;;;;;;;31.33;15.07;;;;;;;;;;1484435;40;20135;-61
2021/07/20 00:21:42;;;;;;;31.55;15.02;;;;;;;;;;1484787;40;20040;-62
2021/07/20 00:22:43;;;;;;;32.35;15.13;;;;;;;;;;1484457;40;20032;-62
2021/07/20 00:23:46;;;;;;;26.50;13.98;;;;;;;;;;1484746;40;20032;-62
2021/07/20 00:24:47;;;;;;;36.08;15.45;;;;;;;;;;1484525;40;20029;-62
2021/07/20 00:25:50;;;;;;;34.28;14.50;;;;;;;;;;1484527;40;20320;-62
2021/07/20 00:26:51;;;;;;;32.22;15.40;;;;;;;;;;1484702;40;20033;-62
2021/07/20 00:27:53;;;;;;;34.08;15.98;;;;;;;;;;1484595;40;20328;-61
2021/07/20 00:28:54;;;;;;;29.63;13.63;;;;;;;;;;1484455;40;20021;-62
2021/07/20 00:29:57;;;;;;;32.17;15.02;;;;;;;;;;1484129;40;20021;-62
2021/07/20 00:30:58;;;;;;;34.05;15.05;;;;;;;;;;1484017;40;20021;-62
2021/07/20 00:32:00;;;;;;;32.55;14.63;;;;;;;;;;1484556;40;20293;-62
2021/07/20 00:33:01;;;;;;;32.22;15.23;;;;;;;;;;1484449;40;20273;-62
2021/07/20 00:34:03;;;;;;;34.80;15.25;;;;;;;;;;1484501;40;20032;-62
2021/07/20 00:35:05;;;;;;;30.67;15.75;;;;;;;;;;1484487;40;20028;-62
2021/07/20 00:36:07;;;;;;;34.28;15.68;;;;;;;;;;1484401;40;20064;-62
2021/07/20 00:37:08;;;;;;;31.92;15.27;;;;;;;;;;1484428;40;20299;-62
2021/07/20 00:38:11;;;;;;;34.25;15.20;;;;;;;;;;1484606;40;20266;-61
2021/07/20 00:39:12;;;;;;;31.65;15.35;;;;;;;;;;1484420;40;20401;-62
2021/07/20 00:40:16;;;;;;;32.72;15.25;;;;;;;;;;1484640;40;20062;-62
2021/07/20 00:41:17;;;;;;;32.72;16.02;;;;;;;;;;1484383;40;20040;-62
2021/07/20 00:42:19;;;;;;;36.65;17.05;;;;;;;;;;1484642;40;20276;-62
2021/07/20 00:43:20;;;;;;;31.58;15.02;;;;;;;;;;1484389;40;20024;-62
2021/07/20 00:44:22;;;;;;;32.60;15.13;;;;;;;;;;1484480;40;20029;-62
2021/07/20 00:45:24;;;;;;;31.63;14.77;;;;;;;;;;1484393;40;20021;-61
2021/07/20 00:46:26;;;;;;;31.42;15.40;;;;;;;;;;1484679;40;20051;-62
2021/07/20 00:47:27;;;;;;;34.78;15.40;;;;;;;;;;1484338;40;20109;-62
2021/07/20 00:48:28;;;;;;;32.10;15.13;;;;;;;;;;1484413;40;20113;-62
2021/07/20 00:49:29;;;;;;;36.35;16.52;;;;;;;;;;1484393;40;20384;-62
2021/07/20 00:50:34;;;;;;;33.40;15.82;;;;;;;;;;1484633;40;20024;-61
2021/07/20 00:51:35;;;;;;;36.05;15.52;;;;;;;;;;1483756;40;20024;-61
2021/07/20 00:52:37;;;;;;;32.65;15.65;;;;;;;;;;1484022;40;20379;-62
2021/07/20 00:53:38;;;;;;;33.22;15.88;;;;;;;;;;1484509;40;20025;-62
2021/07/20 00:54:40;;;;;;;34.00;15.95;;;;;;;;;;1484464;40;20486;-62
2021/07/20 00:55:42;;;;;;;38.00;16.55;;;;;;;;;;1484374;40;20028;-62
2021/07/20 00:56:44;;;;;;;35.65;16.17;;;;;;;;;;1483990;40;20033;-62
2021/07/20 00:57:45;;;;;;;34.60;15.98;;;;;;;;;;1483938;40;20024;-62
2021/07/20 00:58:47;;;;;;;34.40;16.08;;;;;;;;;;1484590;40;20025;-62
2021/07/20 00:59:48;;;;;;;30.55;15.43;;;;;;;;;;1484328;40;20075;-62
2021/07/20 01:00:52;;;;;;;38.28;15.90;;;;;;;;;;1484390;40;20017;-62
2021/07/20 01:01:53;;;;;;;34.30;16.02;;;;;;;;;;1484287;40;20047;-62
2021/07/20 01:02:55;;;;;;;32.88;16.38;;;;;;;;;;1484565;40;20036;-62
2021/07/20 01:03:56;;;;;;;39.65;15.82;;;;;;;;;;1484347;40;20373;-62
2021/07/20 01:04:58;;;;;;;38.50;15.93;;;;;;;;;;1484458;40;20074;-62
2021/07/20 01:06:01;;;;;;;34.10;16.40;;;;;;;;;;1484272;40;20021;-61
2021/07/20 01:07:03;;;;;;;35.50;16.23;;;;;;;;;;1485024;40;20037;-62
2021/07/20 01:08:05;;;;;;;32.00;16.20;;;;;;;;;;1484989;40;20024;-62
2021/07/20 01:09:07;;;;;;;38.15;16.77;;;;;;;;;;1485059;40;20021;-61
2021/07/20 01:10:09;;;;;;;37.00;15.82;;;;;;;;;;1485185;40;20024;-62
2021/07/20 01:11:11;;;;;;;30.88;14.65;;;;;;;;;;1484916;40;20035;-61
2021/07/20 01:12:14;;;;;;;35.40;15.75;;;;;;;;;;1485101;40;20029;-62
2021/07/20 01:13:15;;;;;;;32.17;15.38;;;;;;;;;;1484980;40;20037;-62
2021/07/20 01:14:17;;;;;;;34.78;16.17;;;;;;;;;;1485024;40;20396;-62
2021/07/20 01:15:23;;;;;;;37.53;16.30;;;;;;;;;;1484911;40;20036;-62
2021/07/20 01:16:26;;;;;;;32.60;15.73;;;;;;;;;;1485062;40;20025;-62
2021/07/20 01:17:28;;;;;;;35.25;15.70;;;;;;;;;;1485204;40;20027;-60
2021/07/20 01:18:29;;;;;;;37.38;15.93;;;;;;;;;;1485150;40;20031;-62
2021/07/20 01:19:37;;;;;;;34.17;15.63;;;;;;;;;;1485067;40;20292;-62
2021/07/20 01:20:38;;;;;;;33.28;15.63;;;;;;;;;;1485075;40;20031;-62
2021/07/20 01:21:40;;;;;;;34.22;15.95;;;;;;;;;;1484558;40;20393;-61
2021/07/20 01:22:50;;;;;;;34.22;15.70;;;;;;;;;;1484723;40;20021;-62
2021/07/20 01:23:56;;;;;;;33.15;14.63;;;;;;;;;;1484899;40;20025;-62
2021/07/20 01:24:57;;;;;;;35.58;16.17;;;;;;;;;;1484698;40;20021;-62
2021/07/20 01:25:59;;;;;;;34.03;15.48;;;;;;;;;;1484760;40;20086;-62
2021/07/20 01:27:00;;;;;;;35.53;16.23;;;;;;;;;;1484788;40;20021;-61
2021/07/20 01:28:05;;;;;;;33.45;15.32;;;;;;;;;;1484802;40;20025;-60
2021/07/20 01:29:07;;;;;;;39.03;16.33;;;;;;;;;;1484757;40;20025;-61
2021/07/20 01:30:10;;;;;;;36.15;15.90;;;;;;;;;;1484832;40;20025;-62
2021/07/20 01:31:15;;;;;;;34.28;16.13;;;;;;;;;;1484558;40;20029;-61
2021/07/20 01:32:18;;;;;;;33.03;16.17;;;;;;;;;;1484691;40;20031;-62
2021/07/20 01:33:21;;;;;;;36.72;17.05;;;;;;;;;;1484625;40;20032;-62
2021/07/20 01:34:23;;;;;;;37.38;16.17;;;;;;;;;;1484781;40;20037;-62
2021/07/20 01:35:25;;;;;;;36.00;16.00;;;;;;;;;;1484697;40;20288;-61
2021/07/20 01:36:29;;;;;;;34.67;15.80;;;;;;;;;;1484807;40;20025;-62
2021/07/20 01:37:30;;;;;;;33.35;16.40;;;;;;;;;;1484624;40;20028;-62
2021/07/20 01:38:32;;;;;;;31.00;14.82;;;;;;;;;;1484644;40;20113;-62
2021/07/20 01:39:35;;;;;;;30.08;15.32;;;;;;;;;;1484783;40;20021;-62
2021/07/20 01:40:39;;;;;;;34.88;15.98;;;;;;;;;;1484778;40;20140;-60
2021/07/20 01:41:41;;;;;;;38.05;16.20;;;;;;;;;;1484551;40;20063;-62
2021/07/20 01:42:45;;;;;;;31.30;15.85;;;;;;;;;;1484786;40;20029;-62
2021/07/20 01:43:51;;;;;;;33.78;15.82;;;;;;;;;;1484593;40;20028;-62
2021/07/20 01:44:55;;;;;;;31.92;16.02;;;;;;;;;;1484776;40;20036;-61
2021/07/20 01:45:58;;;;;;;36.30;15.82;;;;;;;;;;1484678;40;20025;-62
2021/07/20 01:47:00;;;;;;;34.60;17.23;;;;;;;;;;1484777;40;20020;-61
2021/07/20 01:48:03;;;;;;;34.53;17.50;;;;;;;;;;1484645;40;20032;-61
2021/07/20 01:49:07;;;;;;;32.58;16.55;;;;;;;;;;1484929;40;20029;-62
2021/07/20 01:50:09;;;;;;;33.30;15.90;;;;;;;;;;1484553;40;20025;-62
2021/07/20 01:51:11;;;;;;;34.38;16.33;;;;;;;;;;1484854;40;20029;-61
2021/07/20 01:52:13;;;;;;;32.45;16.00;;;;;;;;;;1484632;40;20028;-61
2021/07/20 01:53:15;;;;;;;33.97;15.93;;;;;;;;;;1484655;40;20024;-62
2021/07/20 01:54:16;;;;;;;34.45;15.70;;;;;;;;;;1484674;40;20027;-62
2021/07/20 01:55:19;;;;;;;33.35;15.18;;;;;;;;;;1484823;40;20375;-62
2021/07/20 01:56:21;;;;;;;34.22;16.13;;;;;;;;;;1484638;40;20021;-62
2021/07/20 01:57:23;;;;;;;36.25;16.48;;;;;;;;;;1484764;40;20308;-61
2021/07/20 01:58:23;;;;;;;35.10;16.08;;;;;;;;;;1484698;40;20025;-62
2021/07/20 01:59:25;;;;;;;32.83;15.98;;;;;;;;;;1484710;40;20313;-62
2021/07/20 02:00:27;;;;;;;32.83;16.08;;;;;;;;;;1484560;40;20021;-62
2021/07/20 02:01:33;;;;;;;34.50;16.25;;;;;;;;;;1484642;40;20032;-62
2021/07/20 02:02:39;;;;;;;34.72;16.15;;;;;;;;;;1484106;40;20041;-62
2021/07/20 02:04:10;;;;;;;35.92;16.65;;;;;;;;;;1484148;40;20428;-62
2021/07/20 02:09:17;;;;;;;33.67;15.93;;;;;;;;;;1484930;40;20114;-61
2021/07/20 02:10:20;;;;;;;37.20;16.40;;;;;;;;;;1484585;40;20025;-62
2021/07/20 02:11:27;;;;;;;37.60;16.40;;;;;;;;;;1484602;40;20035;-62
2021/07/20 02:12:33;;;;;;;37.22;16.17;;;;;;;;;;1484728;40;20292;-62
2021/07/20 02:13:41;;;;;;;39.67;16.95;;;;;;;;;;1484803;40;20053;-61
2021/07/20 02:14:45;;;;;;;36.05;16.73;;;;;;;;;;1484644;40;20017;-61
2021/07/20 02:15:49;;;;;;;33.85;16.52;;;;;;;;;;1484659;40;20025;-62
2021/07/20 02:16:51;;;;;;;34.35;16.67;;;;;;;;;;1484618;40;20017;-61
2021/07/20 02:17:54;;;;;;;40.58;16.45;;;;;;;;;;1484737;40;20021;-62
2021/07/20 02:19:00;;;;;;;36.30;17.45;;;;;;;;;;1484500;40;20021;-62
2021/07/20 02:20:08;;;;;;;37.47;15.63;;;;;;;;;;1484704;40;20024;-62
2021/07/20 02:21:09;;;;;;;36.63;16.30;;;;;;;;;;1456268;40;1146421;-61
2021/07/20 02:22:12;;;;;;;42.33;17.38;;;;;;;;;;1484914;40;20024;-61
2021/07/20 02:23:14;;;;;;;37.33;15.80;;;;;;;;;;1484983;40;20033;-62
2021/07/20 02:24:16;;;;;;;34.65;16.52;;;;;;;;;;1484932;40;20025;-61
2021/07/20 02:25:22;;;;;;;34.42;15.52;;;;;;;;;;1484745;40;20028;-62
2021/07/20 02:26:26;;;;;;;35.88;15.88;;;;;;;;;;1484536;40;20084;-62
2021/07/20 02:27:28;;;;;;;36.35;16.10;;;;;;;;;;1484308;40;20155;-61
2021/07/20 02:28:31;;;;;;;37.92;17.45;;;;;;;;;;1484907;40;20025;-61
2021/07/20 02:29:33;;;;;;;37.92;16.52;;;;;;;;;;1484858;40;20044;-62
2021/07/20 02:30:35;;;;;;;36.17;16.58;;;;;;;;;;1484930;40;20032;-62
2021/07/20 02:31:37;;;;;;;39.03;16.75;;;;;;;;;;1484688;40;20032;-62
2021/07/20 02:32:40;;;;;;;36.33;17.17;;;;;;;;;;1484978;40;20032;-61
2021/07/20 02:33:42;;;;;;;39.28;16.92;;;;;;;;;;1484725;40;20385;-62
2021/07/20 02:34:49;;;;;;;42.88;17.58;;;;;;;;;;1485047;40;20057;-61
2021/07/20 02:35:50;;;;;;;38.78;16.77;;;;;;;;;;1484803;40;20025;-62
2021/07/20 02:36:54;;;;;;;45.35;18.40;;;;;;;;;;1484986;40;20025;-61
2021/07/20 02:37:56;;;;;;;37.28;16.83;;;;;;;;;;1484896;40;20024;-62
2021/07/20 02:38:59;;;;;;;33.45;16.45;;;;;;;;;;1484851;40;20385;-61
2021/07/20 02:40:00;;;;;;;30.88;16.48;;;;;;;;;;1484789;40;20288;-61
2021/07/20 02:41:04;;;;;;;35.80;16.10;;;;;;;;;;1484680;40;20055;-62
2021/07/20 02:42:05;;;;;;;36.13;17.23;;;;;;;;;;1484834;40;20021;-61
2021/07/20 02:43:07;;;;;;;39.53;16.83;;;;;;;;;;1484856;40;20436;-62
2021/07/20 02:44:10;;;;;;;36.88;16.40;;;;;;;;;;1484669;40;20036;-61
2021/07/20 02:45:14;;;;;;;38.55;17.15;;;;;;;;;;1484820;40;20036;-62
2021/07/20 02:46:16;;;;;;;33.88;16.67;;;;;;;;;;1484674;40;20021;-62
2021/07/20 02:47:19;;;;;;;38.35;16.60;;;;;;;;;;1484852;40;20036;-61
2021/07/20 02:48:22;;;;;;;44.20;18.02;;;;;;;;;;1484715;40;20028;-62
2021/07/20 02:49:24;;;;;;;38.60;16.35;;;;;;;;;;1484974;40;20028;-62
2021/07/20 02:50:25;;;;;;;37.92;16.75;;;;;;;;;;1484867;40;20407;-62
2021/07/20 02:51:28;;;;;;;33.38;15.95;;;;;;;;;;1484710;40;20033;-62
2021/07/20 02:52:30;;;;;;;33.63;16.02;;;;;;;;;;1484669;40;20021;-62
2021/07/20 02:53:32;;;;;;;39.55;17.88;;;;;;;;;;1484780;40;20045;-62
2021/07/20 02:54:33;;;;;;;37.90;17.63;;;;;;;;;;1484857;40;20025;-62
2021/07/20 02:55:36;;;;;;;37.60;16.67;;;;;;;;;;1484896;40;20024;-62
2021/07/20 02:56:41;;;;;;;41.80;16.98;;;;;;;;;;1484766;40;20021;-61
2021/07/20 02:57:45;;;;;;;39.65;17.05;;;;;;;;;;1484827;40;20025;-62
2021/07/20 02:58:48;;;;;;;38.65;17.15;;;;;;;;;;1484925;40;20036;-62
2021/07/20 02:59:50;;;;;;;35.17;15.38;;;;;;;;;;1484725;40;20029;-62
2021/07/20 03:00:52;;;;;;;34.40;16.23;;;;;;;;;;1484682;40;20029;-61
2021/07/20 03:01:57;;;;;;;35.95;15.85;;;;;;;;;;1484853;40;20032;-61
2021/07/20 03:02:58;;;;;;;40.03;17.10;;;;;;;;;;1484601;40;20021;-61
2021/07/20 03:04:01;;;;;;;37.08;17.13;;;;;;;;;;1484891;40;20029;-61
2021/07/20 03:05:03;;;;;;;40.70;16.70;;;;;;;;;;1484878;40;20056;-62
2021/07/20 03:06:09;;;;;;;39.03;16.75;;;;;;;;;;1484837;40;20025;-61
2021/07/20 03:07:13;;;;;;;40.35;17.15;;;;;;;;;;1485069;40;20021;-57
2021/07/20 03:08:17;;;;;;;36.50;16.55;;;;;;;;;;1484763;40;20078;-58
2021/07/20 03:09:20;;;;;;;44.28;16.83;;;;;;;;;;1484625;40;20360;-58
2021/07/20 03:10:24;;;;;;;38.97;16.90;;;;;;;;;;1484806;40;20033;-58
2021/07/20 03:11:29;;;;;;;33.97;17.00;;;;;;;;;;1484664;40;20063;-58
2021/07/20 03:12:33;;;;;;;36.58;16.42;;;;;;;;;;1484845;40;20021;-58
2021/07/20 03:13:37;;;;;;;37.30;16.63;;;;;;;;;;1484253;40;20017;-58
2021/07/20 03:14:40;;;;;;;38.60;17.40;;;;;;;;;;1484181;40;20110;-58
2021/07/20 03:15:41;;;;;;;42.17;17.73;;;;;;;;;;1484553;40;20025;-58
2021/07/20 03:16:45;;;;;;;39.58;17.80;;;;;;;;;;1484805;40;20025;-58
2021/07/20 03:17:46;;;;;;;34.63;16.10;;;;;;;;;;1484649;40;20150;-60
2021/07/20 03:18:50;;;;;;;41.60;17.83;;;;;;;;;;1484868;40;20031;-60
2021/07/20 03:19:52;;;;;;;37.28;16.88;;;;;;;;;;1484692;40;20024;-58
2021/07/20 03:20:55;;;;;;;37.75;16.23;;;;;;;;;;1484695;40;20040;-59
2021/07/20 03:21:59;;;;;;;37.03;16.45;;;;;;;;;;1484695;40;20031;-58
2021/07/20 03:23:03;;;;;;;36.47;16.67;;;;;;;;;;1484546;40;20347;-58
2021/07/20 03:24:05;;;;;;;37.70;15.80;;;;;;;;;;1484804;40;20029;-59
2021/07/20 03:25:09;;;;;;;38.92;16.52;;;;;;;;;;1484903;40;20028;-58
2021/07/20 03:26:11;;;;;;;45.78;17.35;;;;;;;;;;1484629;40;20021;-60
2021/07/20 03:27:13;;;;;;;38.95;16.42;;;;;;;;;;1484910;40;20039;-58
2021/07/20 03:28:16;;;;;;;41.13;16.40;;;;;;;;;;1484864;40;20029;-58
2021/07/20 03:29:19;;;;;;;45.35;17.42;;;;;;;;;;1484273;40;20277;-58
2021/07/20 03:30:22;;;;;;;41.03;17.02;;;;;;;;;;1484627;40;20392;-58
2021/07/20 03:31:24;;;;;;;38.80;17.80;;;;;;;;;;1484616;40;20325;-58
2021/07/20 03:32:26;;;;;;;40.33;16.15;;;;;;;;;;1484619;40;20068;-58
2021/07/20 03:33:31;;;;;;;34.90;15.82;;;;;;;;;;1484780;40;20032;-58
2021/07/20 03:34:32;;;;;;;41.15;17.02;;;;;;;;;;1484548;40;20040;-58
2021/07/20 03:35:34;;;;;;;35.72;16.85;;;;;;;;;;1484701;40;20025;-58
2021/07/20 03:36:37;;;;;;;37.67;17.35;;;;;;;;;;1484692;40;20029;-58
2021/07/20 03:37:38;;;;;;;40.97;17.42;;;;;;;;;;1484604;40;20377;-58
2021/07/20 03:38:41;;;;;;;41.00;17.17;;;;;;;;;;1484840;40;20032;-59
2021/07/20 03:39:42;;;;;;;38.08;16.70;;;;;;;;;;1484701;40;20024;-58
2021/07/20 03:40:45;;;;;;;42.33;16.80;;;;;;;;;;1484683;40;20285;-59
2021/07/20 03:41:47;;;;;;;37.25;16.33;;;;;;;;;;1484750;40;20027;-58
2021/07/20 03:42:49;;;;;;;37.35;16.83;;;;;;;;;;1484647;40;20098;-58
2021/07/20 03:43:52;;;;;;;40.00;16.80;;;;;;;;;;1484794;40;20025;-59
2021/07/20 03:44:54;;;;;;;42.60;16.88;;;;;;;;;;1484732;40;20297;-58
2021/07/20 03:45:55;;;;;;;39.45;16.45;;;;;;;;;;1484643;40;20032;-58
2021/07/20 03:46:58;;;;;;;38.28;15.77;;;;;;;;;;1484852;40;20330;-58
2021/07/20 03:47:59;;;;;;;36.33;16.23;;;;;;;;;;1484652;40;20138;-58
2021/07/20 03:49:01;;;;;;;35.47;15.65;;;;;;;;;;1484042;40;20111;-58
2021/07/20 03:50:03;;;;;;;38.78;16.83;;;;;;;;;;1484072;40;20028;-58
2021/07/20 03:51:05;;;;;;;37.85;17.13;;;;;;;;;;1484528;40;20068;-58
2021/07/20 03:52:07;;;;;;;48.30;18.25;;;;;;;;;;1484543;40;20027;-58
2021/07/20 03:53:09;;;;;;;41.60;17.10;;;;;;;;;;1484688;40;20025;-58
2021/07/20 03:54:11;;;;;;;40.17;17.50;;;;;;;;;;1484501;40;20413;-58
2021/07/20 03:55:13;;;;;;;46.08;16.75;;;;;;;;;;1484780;40;20036;-58
2021/07/20 03:56:15;;;;;;;40.38;16.63;;;;;;;;;;1484654;40;20055;-58
2021/07/20 03:57:21;;;;;;;42.10;16.88;;;;;;;;;;1484686;40;20024;-58
2021/07/20 03:58:23;;;;;;;39.25;16.10;;;;;;;;;;1484773;40;20297;-58
2021/07/20 03:59:29;;;;;;;36.75;16.38;;;;;;;;;;1484594;40;20025;-60
2021/07/20 04:00:31;;;;;;;43.15;16.58;;;;;;;;;;1484633;40;20404;-58
2021/07/20 04:01:35;;;;;;;41.40;16.23;;;;;;;;;;1484770;40;20041;-58
2021/07/20 04:02:45;;;;;;;36.63;15.93;;;;;;;;;;1484700;40;20036;-60
2021/07/20 04:03:48;;;;;;;40.60;17.08;;;;;;;;;;1484755;40;20029;-58
2021/07/20 04:04:52;;;;;;;39.10;17.08;;;;;;;;;;1484609;40;20021;-58
2021/07/20 04:05:57;;;;;;;40.97;16.33;;;;;;;;;;1484492;40;20114;-58
2021/07/20 04:06:59;;;;;;;35.17;16.58;;;;;;;;;;1484711;40;20273;-58
2021/07/20 04:08:02;;;;;;;40.92;17.58;;;;;;;;;;1484650;40;20029;-60
2021/07/20 04:09:03;;;;;;;35.80;16.98;;;;;;;;;;1484499;40;20028;-58
2021/07/20 04:10:06;;;;;;;42.72;17.45;;;;;;;;;;1484588;40;20029;-58
2021/07/20 04:11:07;;;;;;;41.03;17.83;;;;;;;;;;1484441;40;20416;-60
2021/07/20 04:12:13;;;;;;;39.28;16.80;;;;;;;;;;1484495;40;20025;-58
2021/07/20 04:13:14;;;;;;;35.75;17.17;;;;;;;;;;1484661;40;20105;-58
2021/07/20 04:14:17;;;;;;;38.90;16.73;;;;;;;;;;1484576;40;20025;-58
2021/07/20 04:15:19;;;;;;;38.60;17.23;;;;;;;;;;1484493;40;20025;-58
2021/07/20 04:16:25;;;;;;;42.17;16.80;;;;;;;;;;1484498;40;20102;-58
2021/07/20 04:17:27;;;;;;;38.10;17.08;;;;;;;;;;1484520;40;20029;-58
2021/07/20 04:18:31;;;;;;;35.95;17.02;;;;;;;;;;1484800;40;20031;-58
2021/07/20 04:19:33;;;;;;;40.10;17.58;;;;;;;;;;1484486;40;20024;-58
2021/07/20 04:20:36;;;;;;;41.47;17.70;;;;;;;;;;1484758;40;20076;-60
2021/07/20 04:21:38;;;;;;;42.83;17.95;;;;;;;;;;1484513;40;20284;-58
2021/07/20 04:22:41;;;;;;;38.95;17.92;;;;;;;;;;1484612;40;20412;-58
2021/07/20 04:23:42;;;;;;;36.30;17.63;;;;;;;;;;1484452;40;20029;-58
2021/07/20 04:24:45;;;;;;;38.15;17.38;;;;;;;;;;1484518;40;20035;-58
2021/07/20 04:25:47;;;;;;;45.83;18.52;;;;;;;;;;1484596;40;20032;-58
2021/07/20 04:26:49;;;;;;;44.67;17.25;;;;;;;;;;1484612;40;20025;-58
2021/07/20 04:27:51;;;;;;;40.42;17.13;;;;;;;;;;1484456;40;20020;-58
2021/07/20 04:28:53;;;;;;;37.47;15.75;;;;;;;;;;1484486;40;20035;-58
2021/07/20 04:29:54;;;;;;;41.38;17.13;;;;;;;;;;1484626;40;20032;-58
2021/07/20 04:30:59;;;;;;;45.72;18.25;;;;;;;;;;1484578;40;20043;-58
2021/07/20 04:32:03;;;;;;;41.80;17.45;;;;;;;;;;1484522;40;20296;-58
2021/07/20 04:33:06;;;;;;;40.47;17.27;;;;;;;;;;1484565;40;20292;-58
2021/07/20 04:34:08;;;;;;;39.25;17.05;;;;;;;;;;1484549;40;20039;-58
2021/07/20 04:35:15;;;;;;;48.40;17.85;;;;;;;;;;1484510;40;20065;-58
2021/07/20 04:36:18;;;;;;;43.20;18.45;;;;;;;;;;1484463;40;20024;-58
2021/07/20 04:37:20;;;;;;;40.97;17.48;;;;;;;;;;1484539;40;20366;-58
2021/07/20 04:38:23;;;;;;;44.33;18.25;;;;;;;;;;1484444;40;20035;-58
2021/07/20 04:39:25;;;;;;;44.22;18.20;;;;;;;;;;1484472;40;20049;-58
2021/07/20 04:40:26;;;;;;;45.35;20.10;;;;;;;;;;1484476;40;20036;-58
2021/07/20 04:41:28;;;;;;;39.97;18.20;;;;;;;;;;1484522;40;20037;-58
2021/07/20 04:42:29;;;;;;;47.20;17.95;;;;;;;;;;1484662;40;20276;-58
2021/07/20 04:43:31;;;;;;;42.67;18.33;;;;;;;;;;1484578;40;20017;-59
2021/07/20 04:44:32;;;;;;;41.55;17.63;;;;;;;;;;1484476;40;20043;-58
2021/07/20 04:45:36;;;;;;;41.83;18.08;;;;;;;;;;1484522;40;20032;-58
2021/07/20 04:46:38;;;;;;;37.80;17.42;;;;;;;;;;1484492;40;20400;-58
2021/07/20 04:47:41;;;;;;;40.60;18.67;;;;;;;;;;1484500;40;20025;-58
2021/07/20 04:48:45;;;;;;;37.85;17.75;;;;;;;;;;1484649;40;20028;-58
2021/07/20 04:49:47;;;;;;;42.55;18.83;;;;;;;;;;1484572;40;20028;-58
2021/07/20 04:50:48;;;;;;;42.97;18.30;;;;;;;;;;1484331;40;20079;-58
2021/07/20 04:51:50;;;;;;;40.38;18.90;;;;;;;;;;1484445;40;20114;-58
2021/07/20 04:52:51;;;;;;;45.90;18.50;;;;;;;;;;1484477;40;20048;-58
2021/07/20 04:53:54;;;;;;;42.83;18.45;;;;;;;;;;1484553;40;20021;-58
2021/07/20 04:54:56;;;;;;;45.30;19.00;;;;;;;;;;1484470;40;20048;-58
2021/07/20 04:55:58;;;;;;;43.90;19.38;;;;;;;;;;1484368;40;20383;-58
2021/07/20 04:56:59;;;;;;;41.88;18.30;;;;;;;;;;1484532;40;20020;-60
2021/07/20 04:58:02;;;;;;;42.88;20.08;;;;;;;;;;1484525;40;20044;-58
2021/07/20 04:59:03;;;;;;;44.20;19.45;;;;;;;;;;1484400;40;20025;-58
2021/07/20 05:00:07;;;;;;;40.05;18.50;;;;;;;;;;1484423;40;20033;-58
2021/07/20 05:01:08;;;;;;;39.38;18.52;;;;;;;;;;1484429;40;20033;-60
2021/07/20 05:02:14;;;;;;;44.13;19.42;;;;;;;;;;1484362;40;20029;-59
2021/07/20 05:03:17;;;;;;;39.20;18.15;;;;;;;;;;1484349;40;20061;-58
2021/07/20 05:04:21;;;;;;;40.50;18.85;;;;;;;;;;1484458;40;20037;-58
2021/07/20 05:05:24;;;;;;;39.80;17.98;;;;;;;;;;1484417;40;20029;-59
2021/07/20 05:06:27;;;;;;;42.15;18.48;;;;;;;;;;1484498;40;20032;-59
2021/07/20 05:07:28;;;;;;;37.03;17.38;;;;;;;;;;1484348;40;20021;-59
2021/07/20 05:08:31;;;;;;;36.00;17.17;;;;;;;;;;1484452;40;20041;-60
2021/07/20 05:09:35;;;;;;;38.00;17.55;;;;;;;;;;1484448;40;20028;-59
2021/07/20 05:10:37;;;;;;;40.70;18.08;;;;;;;;;;1484508;40;20086;-60
2021/07/20 05:11:39;;;;;;;41.30;18.30;;;;;;;;;;1484428;40;20032;-58
2021/07/20 05:12:41;;;;;;;37.88;18.08;;;;;;;;;;1484467;40;20032;-60
2021/07/20 05:13:45;;;;;;;36.88;17.80;;;;;;;;;;1484291;40;20300;-58
2021/07/20 05:14:47;;;;;;;39.00;17.67;;;;;;;;;;1484656;40;20021;-59
2021/07/20 05:15:51;;;;;;;41.13;17.52;;;;;;;;;;1484065;40;20090;-59
2021/07/20 05:16:53;;;;;;;40.40;18.00;;;;;;;;;;1483998;40;20024;-59
2021/07/20 05:17:55;;;;;;;38.20;16.23;;;;;;;;;;1484300;40;20109;-58
2021/07/20 05:18:57;;;;;;;39.97;17.55;;;;;;;;;;1484477;40;20025;-58
2021/07/20 05:19:59;;;;;;;39.15;18.27;;;;;;;;;;1484301;40;20021;-58
2021/07/20 05:21:01;;;;;;;40.08;18.40;;;;;;;;;;1484407;40;20059;-60
2021/07/20 05:22:03;;;;;;;36.85;17.50;;;;;;;;;;1484295;40;20377;-60
2021/07/20 05:23:06;;;;;;;38.85;17.15;;;;;;;;;;1484303;40;20025;-60
2021/07/20 05:24:10;;;;;;;36.75;16.58;;;;;;;;;;1484377;40;20028;-60
2021/07/20 05:25:13;;;;;;;35.70;17.42;;;;;;;;;;1484243;40;20285;-58
2021/07/20 05:26:16;;;;;;;35.67;17.50;;;;;;;;;;1484383;40;20028;-58
2021/07/20 05:27:18;;;;;;;33.42;16.88;;;;;;;;;;1484216;40;20025;-58
2021/07/20 05:28:20;;;;;;;39.92;17.48;;;;;;;;;;1484315;40;20323;-60
2021/07/20 05:29:23;;;;;;;37.55;19.10;;;;;;;;;;1484342;40;20032;-60
2021/07/20 05:30:24;;;;;;;34.40;17.13;;;;;;;;;;1484370;40;20409;-59
2021/07/20 05:31:27;;;;;;;35.50;16.65;;;;;;;;;;1484202;40;20041;-60
2021/07/20 05:32:30;;;;;;;39.05;17.95;;;;;;;;;;1484263;40;20025;-58
2021/07/20 05:33:34;;;;;;;33.90;17.42;;;;;;;;;;1484340;40;20029;-58
2021/07/20 05:34:35;;;;;;;31.65;16.35;;;;;;;;;;1484270;40;20024;-59
2021/07/20 05:35:37;;;;;;;35.72;17.40;;;;;;;;;;1484313;40;20037;-59
2021/07/20 05:36:38;;;;;;;35.70;17.17;;;;;;;;;;1484235;40;20029;-59
2021/07/20 05:37:41;;;;;;;34.92;17.83;;;;;;;;;;1484548;40;20037;-59
2021/07/20 05:38:42;;;;;;;35.17;17.60;;;;;;;;;;1484193;40;20025;-60
2021/07/20 05:39:44;;;;;;;32.47;16.85;;;;;;;;;;1484542;40;20028;-58
2021/07/20 05:40:47;;;;;;;34.00;16.30;;;;;;;;;;1484243;40;20039;-60
2021/07/20 05:41:49;;;;;;;37.20;17.83;;;;;;;;;;1484220;40;20400;-58
2021/07/20 05:42:51;;;;;;;36.90;18.02;;;;;;;;;;1484236;40;20021;-60
2021/07/20 05:43:55;;;;;;;36.08;17.23;;;;;;;;;;1484157;40;20065;-59
2021/07/20 05:44:56;;;;;;;40.38;17.10;;;;;;;;;;1484351;40;20024;-59
2021/07/20 05:46:00;;;;;;;36.30;18.17;;;;;;;;;;1484332;40;20029;-59
2021/07/20 05:47:01;;;;;;;31.88;16.95;;;;;;;;;;1483723;40;20032;-59
2021/07/20 05:48:04;;;;;;;34.53;17.13;;;;;;;;;;1483879;40;20106;-58
2021/07/20 05:49:07;;;;;;;33.17;17.38;;;;;;;;;;1484320;40;20036;-60
2021/07/20 05:50:10;;;;;;;36.58;17.38;;;;;;;;;;1484325;40;20029;-58
2021/07/20 05:51:13;;;;;;;35.22;17.83;;;;;;;;;;1484130;40;20029;-58
2021/07/20 05:52:17;;;;;;;35.50;17.50;;;;;;;;;;1484251;40;20025;-59
2021/07/20 05:53:19;;;;;;;35.00;17.45;;;;;;;;;;1484881;40;20025;-59
2021/07/20 05:54:21;;;;;;;35.28;17.13;;;;;;;;;;1485034;40;20036;-60
2021/07/20 05:55:24;;;;;;;35.10;16.70;;;;;;;;;;1484956;40;20028;-58
2021/07/20 05:56:30;;;;;;;32.80;16.85;;;;;;;;;;1484995;40;20037;-58
2021/07/20 05:57:31;;;;;;;37.05;18.10;;;;;;;;;;1484883;40;20040;-58
2021/07/20 05:58:33;;;;;;;32.83;17.05;;;;;;;;;;1484992;40;20025;-58
2021/07/20 05:59:36;;;;;;;37.45;17.30;;;;;;;;;;1484878;40;20025;-58
2021/07/20 06:00:38;;;;;;;36.00;16.65;;;;;;;;;;1484984;40;20047;-58
2021/07/20 06:01:39;;;;;;;41.88;18.10;;;;;;;;;;1484253;40;20031;-59
2021/07/20 06:02:42;;;;;;;34.58;16.42;;;;;;;;;;1484614;40;20021;-59
2021/07/20 06:03:43;;;;;;;37.45;17.63;;;;;;;;;;1484778;40;20028;-60
2021/07/20 06:04:48;;;;;;;38.40;16.85;;;;;;;;;;1484840;40;20389;-60
2021/07/20 06:05:51;;;;;;;33.17;16.50;;;;;;;;;;1484966;40;20036;-59
2021/07/20 06:06:53;;;;;;;35.42;17.15;;;;;;;;;;1485024;40;20385;-59
2021/07/20 06:07:54;;;;;;;30.83;16.45;;;;;;;;;;1484858;40;20381;-60
2021/07/20 06:08:56;;;;;;;34.50;16.83;;;;;;;;;;1484934;40;20033;-60